createdAt,value
2023-05-07T00:02:18.757Z,99642.28
2023-05-07T00:04:46.611Z,99622.03
2023-05-07T00:07:13.634Z,99637.38
2023-05-07T00:09:41.186Z,99630.34
2023-05-07T00:12:08.578Z,99637.28
2023-05-07T00:14:35.769Z,99634.03
2023-05-07T00:17:02.760Z,99613.88
2023-05-07T00:19:29.908Z,99631.28
2023-05-07T00:21:57.426Z,99606.97
2023-05-07T00:24:24.462Z,99628.75
2023-05-07T00:26:51.297Z,99634.88
2023-05-07T00:29:18.209Z,99631.59
2023-05-07T00:31:45.306Z,99629.78
2023-05-07T00:34:12.329Z,99626.88
2023-05-07T00:36:39.202Z,99595.59
2023-05-07T00:39:06.397Z,99599.38
2023-05-07T00:41:33.320Z,99635.94
2023-05-07T00:44:00.313Z,99635.94
2023-05-07T00:46:27.456Z,99619.31
2023-05-07T00:48:55.377Z,99627.34
2023-05-07T00:51:22.488Z,99633.16
2023-05-07T00:53:49.737Z,99638.44
2023-05-07T00:56:17.107Z,99623.06
2023-05-07T00:58:44.423Z,99625.09
2023-05-07T01:01:11.576Z,99628.75
2023-05-07T01:03:38.592Z,99630.47
2023-05-07T01:06:08.610Z,99626.19
2023-05-07T01:08:36.674Z,99616.63
2023-05-07T01:11:04.838Z,99603.66
2023-05-07T01:13:32.496Z,99598.25
2023-05-07T01:15:59.816Z,99615.38
2023-05-07T01:18:27.777Z,99605.00
2023-05-07T01:20:57.007Z,99601.81
2023-05-07T01:23:24.198Z,99601.09
2023-05-07T01:25:54.829Z,99612.06
2023-05-07T01:28:23.887Z,99600.88
2023-05-07T01:31:02.663Z,99599.47
2023-05-07T01:33:32.889Z,99598.66
2023-05-07T01:36:03.385Z,99595.56
2023-05-07T01:38:31.251Z,99590.56
2023-05-07T01:40:59.281Z,99606.97
2023-05-07T01:43:26.559Z,99590.50
2023-05-07T01:45:54.180Z,99607.56
2023-05-07T01:48:21.801Z,99570.06
2023-05-07T01:50:49.694Z,99573.53
2023-05-07T01:53:17.402Z,99598.47
2023-05-07T01:55:44.494Z,99613.22
2023-05-07T01:58:12.010Z,99610.78
2023-05-07T02:00:39.165Z,99610.09
2023-05-07T02:03:07.967Z,99602.75
2023-05-07T02:05:55.258Z,99568.53
2023-05-07T02:08:34.697Z,99595.19
2023-05-07T02:11:02.597Z,99587.50
2023-05-07T02:13:34.000Z,99596.00
2023-05-07T02:16:01.947Z,99593.38
2023-05-07T02:18:28.951Z,99577.72
2023-05-07T02:20:55.998Z,99571.78
2023-05-07T02:23:22.980Z,99578.97
2023-05-07T02:25:50.440Z,99579.34
2023-05-07T02:28:18.163Z,99595.66
2023-05-07T02:30:52.096Z,99586.09
2023-05-07T02:33:19.883Z,99602.25
2023-05-07T02:35:47.235Z,99578.31
2023-05-07T02:38:15.976Z,99601.16
2023-05-07T02:40:43.989Z,99594.31
2023-05-07T02:43:11.065Z,99597.06
2023-05-07T02:45:39.017Z,99594.31
2023-05-07T02:48:08.317Z,99601.38
2023-05-07T02:50:35.465Z,99607.91
2023-05-07T02:53:02.519Z,99599.59
2023-05-07T02:55:29.817Z,99594.13
2023-05-07T02:57:56.930Z,99597.75
2023-05-07T03:00:25.557Z,99588.78
2023-05-07T03:03:18.815Z,99597.91
2023-05-07T03:05:45.833Z,99597.97
2023-05-07T03:08:12.723Z,99596.94
2023-05-07T03:10:40.320Z,99613.84
2023-05-07T03:13:07.516Z,99608.34
2023-05-07T03:15:34.745Z,99589.53
2023-05-07T03:18:02.268Z,99609.41
2023-05-07T03:20:29.271Z,99576.47
2023-05-07T03:22:56.763Z,99610.38
2023-05-07T03:25:23.616Z,99589.16
2023-05-07T03:27:50.605Z,99602.50
2023-05-07T03:30:21.216Z,99622.44
2023-05-07T03:32:48.075Z,99620.53
2023-05-07T03:35:15.257Z,99622.16
2023-05-07T03:37:42.581Z,99609.16
2023-05-07T03:40:13.524Z,99623.63
2023-05-07T03:42:48.139Z,99607.69
2023-05-07T03:45:16.848Z,99620.34
2023-05-07T03:47:48.645Z,99620.88
2023-05-07T03:50:18.885Z,99618.66
2023-05-07T03:52:46.355Z,99603.44
2023-05-07T03:55:15.285Z,99628.75
2023-05-07T03:57:48.910Z,99627.56
2023-05-07T04:00:16.090Z,99627.13
2023-05-07T04:02:49.090Z,99634.97
2023-05-07T04:05:22.447Z,99621.75
2023-05-07T04:07:52.687Z,99633.09
2023-05-07T04:10:25.728Z,99631.41
2023-05-07T04:12:55.972Z,99630.72
2023-05-07T04:15:24.747Z,99633.41
2023-05-07T04:17:51.904Z,99634.94
2023-05-07T04:20:21.594Z,99633.44
2023-05-07T04:22:54.986Z,99636.63
2023-05-07T04:25:21.955Z,99643.22
2023-05-07T04:27:50.138Z,99633.22
2023-05-07T04:30:18.111Z,99634.56
2023-05-07T04:32:45.614Z,99637.66
2023-05-07T04:35:12.990Z,99656.22
2023-05-07T04:37:40.086Z,99655.44
2023-05-07T04:40:08.582Z,99654.41
2023-05-07T04:42:35.926Z,99652.56
2023-05-07T04:45:04.176Z,99631.38
2023-05-07T04:47:33.570Z,99656.44
2023-05-07T04:50:02.673Z,99648.50
2023-05-07T04:52:29.566Z,99666.41
2023-05-07T04:54:56.972Z,99662.22
2023-05-07T04:57:24.128Z,99659.97
2023-05-07T04:59:51.259Z,99663.75
2023-05-07T05:02:20.160Z,99653.94
2023-05-07T05:04:48.148Z,99651.63
2023-05-07T05:07:15.469Z,99656.34
2023-05-07T05:09:42.568Z,99635.63
2023-05-07T05:12:10.447Z,99627.09
2023-05-07T05:14:38.849Z,99656.88
2023-05-07T05:17:07.057Z,99645.72
2023-05-07T05:19:37.462Z,99652.78
2023-05-07T05:22:05.013Z,99662.09
2023-05-07T05:24:32.508Z,99661.00
2023-05-07T05:29:55.649Z,99655.22
2023-05-07T05:32:23.859Z,99663.41
2023-05-07T05:35:26.597Z,99674.50
2023-05-07T05:37:53.797Z,99659.53
2023-05-07T05:40:21.584Z,99675.84
2023-05-07T05:42:48.590Z,99668.06
2023-05-07T05:45:17.588Z,99657.00
2023-05-07T05:47:45.790Z,99673.56
2023-05-07T05:50:13.173Z,99675.81
2023-05-07T05:52:41.873Z,99671.72
2023-05-07T05:55:09.999Z,99685.28
2023-05-07T05:57:38.419Z,99671.44
2023-05-07T06:00:06.345Z,99677.94
2023-05-07T06:02:46.064Z,99684.97
2023-05-07T06:05:18.899Z,99670.91
2023-05-07T06:07:47.783Z,99669.28
2023-05-07T06:10:15.757Z,99677.34
2023-05-07T06:12:43.069Z,99673.50
2023-05-07T06:15:10.878Z,99684.78
2023-05-07T06:17:38.578Z,99671.81
2023-05-07T06:20:07.670Z,99676.00
2023-05-07T06:22:34.490Z,99676.31
2023-05-07T06:25:01.578Z,99674.97
2023-05-07T06:27:29.199Z,99672.72
2023-05-07T06:29:57.709Z,99673.66
2023-05-07T06:32:24.662Z,99680.59
2023-05-07T06:34:52.342Z,99670.66
2023-05-07T06:37:19.821Z,99670.53
2023-05-07T06:39:54.394Z,99679.28
2023-05-07T06:42:21.482Z,99662.72
2023-05-07T06:44:50.654Z,99670.66
2023-05-07T06:47:18.719Z,99677.34
2023-05-07T06:49:50.500Z,99676.88
2023-05-07T06:52:19.548Z,99685.31
2023-05-07T06:54:48.548Z,99683.78
2023-05-07T06:57:17.547Z,99697.19
2023-05-07T06:59:44.733Z,99688.63
2023-05-07T07:02:12.448Z,99678.31
2023-05-07T07:04:39.818Z,99679.22
2023-05-07T07:07:10.364Z,99687.31
2023-05-07T07:09:37.388Z,99689.22
2023-05-07T07:12:06.119Z,99678.28
2023-05-07T07:14:34.090Z,99691.34
2023-05-07T07:17:01.335Z,99690.66
2023-05-07T07:19:28.525Z,99689.31
2023-05-07T07:21:56.631Z,99692.66
2023-05-07T07:24:23.546Z,99684.28
2023-05-07T07:26:56.538Z,99700.28
2023-05-07T07:29:27.638Z,99687.72
2023-05-07T07:31:55.197Z,99700.22
2023-05-07T07:34:22.439Z,99694.56
2023-05-07T07:36:50.502Z,99684.03
2023-05-07T07:39:19.138Z,99685.00
2023-05-07T07:41:48.842Z,99671.63
2023-05-07T07:44:16.865Z,99690.22
2023-05-07T07:46:48.596Z,99688.69
2023-05-07T07:49:16.133Z,99697.91
2023-05-07T07:51:44.343Z,99680.00
2023-05-07T07:54:12.879Z,99683.59
2023-05-07T07:56:41.222Z,99679.53
2023-05-07T07:59:09.475Z,99683.00
2023-05-07T08:01:39.249Z,99687.53
2023-05-07T08:04:07.010Z,99677.56
2023-05-07T08:06:38.941Z,99678.13
2023-05-07T08:09:06.451Z,99672.09
2023-05-07T08:11:33.936Z,99679.47
2023-05-07T08:14:03.412Z,99670.56
2023-05-07T08:16:31.254Z,99666.44
2023-05-07T08:19:00.031Z,99675.34
2023-05-07T08:21:27.590Z,99669.81
2023-05-07T08:23:55.047Z,99663.56
2023-05-07T08:26:22.087Z,99662.13
2023-05-07T08:28:49.183Z,99674.88
2023-05-07T08:31:16.264Z,99666.09
2023-05-07T08:33:45.143Z,99668.78
2023-05-07T08:36:12.120Z,99651.66
2023-05-07T08:38:41.928Z,99661.41
2023-05-07T08:41:11.459Z,99666.25
2023-05-07T08:43:42.558Z,99663.44
2023-05-07T08:46:12.463Z,99671.41
2023-05-07T08:48:43.158Z,99662.66
2023-05-07T08:52:09.773Z,99666.63
2023-05-07T08:54:30.639Z,99653.09
2023-05-07T08:56:58.435Z,99657.41
2023-05-07T08:59:25.755Z,99650.72
2023-05-07T09:01:53.206Z,99650.28
2023-05-07T09:04:20.426Z,99657.34
2023-05-07T09:06:49.125Z,99649.66
2023-05-07T09:09:19.079Z,99653.38
2023-05-07T09:11:46.086Z,99637.03
2023-05-07T09:14:15.608Z,99639.41
2023-05-07T09:16:44.819Z,99648.34
2023-05-07T09:19:12.519Z,99649.41
2023-05-07T09:21:44.252Z,99646.91
2023-05-07T09:24:12.562Z,99649.00
2023-05-07T09:26:42.320Z,99654.91
2023-05-07T09:29:11.535Z,99646.16
2023-05-07T09:31:39.704Z,99641.25
2023-05-07T09:34:09.322Z,99643.41
2023-05-07T09:36:39.728Z,99608.88
2023-05-07T09:39:10.244Z,99633.41
2023-05-07T09:41:45.189Z,99632.31
2023-05-07T09:44:18.699Z,99636.34
2023-05-07T09:46:55.009Z,99627.31
2023-05-07T09:49:33.925Z,99631.72
2023-05-07T09:52:07.542Z,99625.38
2023-05-07T09:54:38.889Z,99619.94
2023-05-07T09:57:08.603Z,99611.09
2023-05-07T09:59:37.948Z,99607.47
2023-05-07T10:02:11.481Z,99622.41
2023-05-07T10:04:47.305Z,99615.63
2023-05-07T10:07:17.688Z,99618.66
2023-05-07T10:09:49.167Z,99617.94
2023-05-07T10:12:25.432Z,99619.06
2023-05-07T10:14:55.657Z,99609.81
2023-05-07T10:17:24.537Z,99621.78
2023-05-07T10:19:54.324Z,99621.03
2023-05-07T10:22:23.469Z,99614.63
2023-05-07T10:24:54.195Z,99606.59
2023-05-07T10:27:23.659Z,99603.84
2023-05-07T10:30:22.051Z,99595.41
2023-05-07T10:32:56.407Z,99588.28
2023-05-07T10:35:33.888Z,99594.78
2023-05-07T10:38:05.070Z,99590.13
2023-05-07T10:40:34.637Z,99591.69
2023-05-07T10:43:07.764Z,99594.13
2023-05-07T10:45:45.449Z,99585.09
2023-05-07T10:48:29.819Z,99578.84
2023-05-07T10:51:24.818Z,99580.53
2023-05-07T10:54:12.309Z,99587.00
2023-05-07T10:56:48.836Z,99572.84
2023-05-07T10:59:21.139Z,99572.53
2023-05-07T11:02:00.145Z,99569.44
2023-05-07T11:05:22.286Z,99578.13
2023-05-07T11:08:15.493Z,99561.06
2023-05-07T11:11:11.725Z,99563.22
2023-05-07T11:13:51.612Z,99569.94
2023-05-07T11:16:28.766Z,99558.81
2023-05-07T11:19:15.349Z,99562.44
2023-05-07T11:21:47.281Z,99560.94
2023-05-07T11:24:41.973Z,99575.50
2023-05-07T11:27:09.732Z,99550.44
2023-05-07T11:29:37.552Z,99569.88
2023-05-07T11:32:11.552Z,99558.34
2023-05-07T11:34:46.627Z,99567.16
2023-05-07T11:37:18.562Z,99559.97
2023-05-07T11:40:05.150Z,99549.97
2023-05-07T11:42:34.859Z,99558.81
2023-05-07T11:45:02.667Z,99561.63
2023-05-07T11:47:32.368Z,99543.69
2023-05-07T11:50:05.288Z,99549.66
2023-05-07T11:52:32.218Z,99551.72
2023-05-07T11:55:01.262Z,99551.44
2023-05-07T11:57:28.919Z,99555.88
2023-05-07T12:00:00.871Z,99535.00
2023-05-07T12:02:28.025Z,99536.56
2023-05-07T12:04:58.851Z,99526.06
2023-05-07T12:07:26.165Z,99534.09
2023-05-07T12:09:53.253Z,99537.31
2023-05-07T12:12:20.364Z,99535.75
2023-05-07T12:14:47.924Z,99520.44
2023-05-07T12:17:15.913Z,99514.88
2023-05-07T12:19:44.711Z,99500.41
2023-05-07T12:22:12.051Z,99515.81
2023-05-07T12:24:49.852Z,99511.03
2023-05-07T12:27:18.437Z,99507.91
2023-05-07T12:29:50.747Z,99504.66
2023-05-07T12:32:19.417Z,99513.16
2023-05-07T12:34:47.152Z,99498.72
2023-05-07T12:37:14.423Z,99507.22
2023-05-07T12:40:04.663Z,99492.75
2023-05-07T12:42:37.645Z,99496.84
2023-05-07T12:45:17.515Z,99500.84
2023-05-07T12:47:46.348Z,99494.06
2023-05-07T12:50:15.316Z,99487.25
2023-05-07T12:52:43.896Z,99491.31
2023-05-07T12:55:14.972Z,99494.06
2023-05-07T12:57:44.238Z,99486.38
2023-05-07T13:00:12.012Z,99473.50
2023-05-07T13:02:41.526Z,99481.06
2023-05-07T13:05:10.043Z,99492.66
2023-05-07T13:07:38.151Z,99489.34
2023-05-07T13:10:06.185Z,99478.13
2023-05-07T13:12:33.730Z,99486.16
2023-05-07T13:15:00.657Z,99487.72
2023-05-07T13:17:27.668Z,99489.59
2023-05-07T13:19:54.723Z,99490.06
2023-05-07T13:22:21.738Z,99490.94
2023-05-07T13:24:48.659Z,99497.44
2023-05-07T13:27:16.645Z,99485.84
2023-05-07T13:29:43.618Z,99488.22
2023-05-07T13:32:10.710Z,99487.06
2023-05-07T13:34:38.272Z,99484.63
2023-05-07T13:37:05.328Z,99477.00
2023-05-07T13:39:32.664Z,99486.28
2023-05-07T13:41:59.491Z,99483.44
2023-05-07T13:44:27.065Z,99486.28
2023-05-07T13:46:54.100Z,99464.59
2023-05-07T13:49:21.094Z,99479.88
2023-05-07T13:51:47.917Z,99477.88
2023-05-07T13:54:14.906Z,99481.59
2023-05-07T13:56:41.873Z,99478.41
2023-05-07T13:59:09.399Z,99478.03
2023-05-07T14:01:36.724Z,99480.47
2023-05-07T14:04:03.801Z,99473.22
2023-05-07T14:06:30.899Z,99469.22
2023-05-07T14:08:59.136Z,99465.59
2023-05-07T14:11:26.644Z,99467.63
2023-05-07T14:13:53.428Z,99473.22
2023-05-07T14:16:20.461Z,99476.03
2023-05-07T14:18:47.401Z,99456.78
2023-05-07T14:21:15.098Z,99461.25
2023-05-07T14:23:42.088Z,99460.06
2023-05-07T14:26:08.908Z,99466.47
2023-05-07T14:28:36.047Z,99461.66
2023-05-07T14:31:02.939Z,99460.06
2023-05-07T14:33:30.137Z,99468.09
2023-05-07T14:35:56.889Z,99465.72
2023-05-07T14:38:23.920Z,99465.31
2023-05-07T14:40:50.722Z,99466.91
2023-05-07T14:43:17.788Z,99463.31
2023-05-07T14:45:44.546Z,99465.72
2023-05-07T14:48:16.169Z,99458.50
2023-05-07T14:50:43.672Z,99464.91
2023-05-07T14:53:10.713Z,99467.31
2023-05-07T14:55:37.514Z,99464.50
2023-05-07T14:58:04.979Z,99470.50
2023-05-07T15:00:31.989Z,99467.28
2023-05-07T15:03:11.320Z,99462.44
2023-05-07T15:05:42.546Z,99456.03
2023-05-07T15:08:09.495Z,99460.44
2023-05-07T15:10:41.872Z,99471.66
2023-05-07T15:13:12.663Z,99469.22
2023-05-07T15:15:43.078Z,99453.97
2023-05-07T15:18:10.360Z,99459.97
2023-05-07T15:20:38.486Z,99472.03
2023-05-07T15:23:07.471Z,99452.75
2023-05-07T15:25:34.990Z,99459.19
2023-05-07T15:28:02.084Z,99447.56
2023-05-07T15:30:29.146Z,99451.56
2023-05-07T15:32:56.932Z,99458.38
2023-05-07T15:35:24.401Z,99443.09
2023-05-07T15:37:51.303Z,99447.16
2023-05-07T15:40:19.256Z,99449.16
2023-05-07T15:42:46.612Z,99443.13
2023-05-07T15:45:14.107Z,99443.13
2023-05-07T15:47:41.654Z,99436.34
2023-05-07T15:50:09.032Z,99446.91
2023-05-07T15:52:36.187Z,99426.41
2023-05-07T15:55:03.689Z,99426.72
2023-05-07T15:57:30.912Z,99433.44
2023-05-07T15:59:57.892Z,99430.81
2023-05-07T16:02:25.166Z,99442.19
2023-05-07T16:04:54.423Z,99429.56
2023-05-07T16:10:42.784Z,99434.47
2023-05-07T16:13:09.860Z,99433.59
2023-05-07T16:15:36.788Z,99445.25
2023-05-07T16:18:04.553Z,99436.94
2023-05-07T16:20:31.642Z,99430.94
2023-05-07T16:22:59.163Z,99438.28
2023-05-07T16:25:26.076Z,99434.81
2023-05-07T16:27:54.428Z,99441.69
2023-05-07T16:30:21.374Z,99426.41
2023-05-07T16:32:48.408Z,99433.66
2023-05-07T16:35:15.463Z,99424.75
2023-05-07T16:38:01.161Z,99424.28
2023-05-07T16:40:28.192Z,99435.38
2023-05-07T16:42:55.738Z,99421.28
2023-05-07T16:45:24.795Z,99418.34
2023-05-07T16:47:51.917Z,99424.25
2023-05-07T16:50:18.837Z,99426.44
2023-05-07T16:52:45.937Z,99406.59
2023-05-07T16:55:13.243Z,99428.16
2023-05-07T16:57:40.357Z,99429.16
2023-05-07T17:00:08.150Z,99423.38
2023-05-07T17:02:35.779Z,99425.59
2023-05-07T17:05:06.443Z,99428.66
2023-05-07T17:07:33.512Z,99430.09
2023-05-07T17:10:00.568Z,99415.50
2023-05-07T17:12:43.083Z,99414.16
2023-05-07T17:18:26.536Z,99411.69
2023-05-07T17:20:53.479Z,99425.94
2023-05-07T17:21:15.581Z,99426.00
2023-05-07T17:23:20.394Z,99421.78
2023-05-07T17:25:51.472Z,99420.00
2023-05-07T17:28:18.903Z,99416.72
2023-05-07T17:30:46.691Z,99420.19
2023-05-07T17:33:21.139Z,99413.25
2023-05-07T17:35:49.639Z,99422.38
2023-05-07T17:38:16.556Z,99419.34
2023-05-07T17:40:43.553Z,99417.47
2023-05-07T17:43:10.528Z,99413.91
2023-05-07T17:45:37.535Z,99430.19
2023-05-07T17:48:05.205Z,99428.88
2023-05-07T17:50:32.249Z,99422.22
2023-05-07T17:52:59.355Z,99432.47
2023-05-07T17:55:27.620Z,99427.84
2023-05-07T17:57:56.590Z,99427.28
2023-05-07T18:00:23.707Z,99423.88
2023-05-07T18:02:53.554Z,99413.31
2023-05-07T18:05:20.709Z,99418.38
2023-05-07T18:07:47.561Z,99430.53
2023-05-07T18:10:14.757Z,99430.38
2023-05-07T18:12:41.898Z,99428.78
2023-05-07T18:15:09.873Z,99431.03
2023-05-07T18:17:37.289Z,99431.50
2023-05-07T18:20:11.997Z,99446.00
2023-05-07T18:22:39.452Z,99446.97
2023-05-07T18:25:07.050Z,99439.22
2023-05-07T18:27:34.038Z,99446.31
2023-05-07T18:30:01.242Z,99449.09
2023-05-07T18:32:28.293Z,99453.75
2023-05-07T18:34:56.343Z,99442.44
2023-05-07T18:37:26.117Z,99444.06
2023-05-07T18:39:53.791Z,99448.19
2023-05-07T18:42:20.983Z,99429.75
2023-05-07T18:44:47.789Z,99463.69
2023-05-07T18:47:14.732Z,99468.78
2023-05-07T18:49:45.264Z,99468.59
2023-05-07T18:52:12.048Z,99471.09
2023-05-07T18:54:39.114Z,99460.59
2023-05-07T18:57:06.000Z,99475.53
2023-05-07T18:59:33.059Z,99462.06
2023-05-07T19:02:00.109Z,99476.25
2023-05-07T19:04:27.233Z,99483.72
2023-05-07T19:06:54.739Z,99475.06
2023-05-07T19:09:23.692Z,99495.09
2023-05-07T19:11:50.722Z,99488.28
2023-05-07T19:14:17.751Z,99497.66
2023-05-07T19:16:44.937Z,99504.00
2023-05-07T19:19:11.860Z,99501.50
2023-05-07T19:21:38.686Z,99492.38
2023-05-07T19:24:05.987Z,99490.41
2023-05-07T19:26:32.940Z,99490.28
2023-05-07T19:29:17.500Z,99477.22
2023-05-07T19:31:46.244Z,99491.22
2023-05-07T19:34:15.979Z,99502.09
2023-05-07T19:36:52.276Z,99506.59
2023-05-07T19:39:43.718Z,99509.25
2023-05-07T19:42:10.789Z,99500.94
2023-05-07T19:44:37.723Z,99501.75
2023-05-07T19:47:05.887Z,99504.63
2023-05-07T19:49:32.757Z,99503.34
2023-05-07T19:51:59.637Z,99509.38
2023-05-07T19:54:26.636Z,99509.59
2023-05-07T19:56:59.581Z,99508.78
2023-05-07T19:59:27.508Z,99512.03
2023-05-07T20:01:57.488Z,99499.63
2023-05-07T20:04:32.406Z,99509.94
2023-05-07T20:06:59.850Z,99521.59
2023-05-07T20:09:26.718Z,99507.22
2023-05-07T20:11:53.554Z,99503.81
2023-05-07T20:14:20.641Z,99525.19
2023-05-07T20:16:47.865Z,99518.72
2023-05-07T20:19:14.938Z,99517.78
2023-05-07T20:21:42.796Z,99520.22
2023-05-07T20:24:29.193Z,99535.09
2023-05-07T20:26:56.200Z,99539.69
2023-05-07T20:29:23.981Z,99539.09
2023-05-07T20:32:27.009Z,99501.50
2023-05-07T20:35:37.263Z,99544.94
2023-05-07T20:38:05.174Z,99558.47
2023-05-07T20:40:34.486Z,99570.69
2023-05-07T20:43:03.743Z,99562.59
2023-05-07T20:48:36.912Z,99566.13
2023-05-07T20:51:04.018Z,99562.94
2023-05-07T20:51:38.144Z,99563.66
2023-05-07T20:53:34.498Z,99569.78
2023-05-07T20:56:23.991Z,99554.41
2023-05-07T20:59:26.763Z,99568.25
2023-05-07T21:01:59.604Z,99572.41
2023-05-07T21:04:26.620Z,99578.91
2023-05-07T21:06:53.595Z,99576.84
2023-05-07T21:09:20.640Z,99566.75
2023-05-07T21:11:47.918Z,99564.03
2023-05-07T21:14:14.941Z,99572.66
2023-05-07T21:16:43.223Z,99558.53
2023-05-07T21:19:10.920Z,99564.72
2023-05-07T21:21:37.834Z,99568.63
2023-05-07T21:24:05.903Z,99568.63
2023-05-07T21:26:33.075Z,99573.38
2023-05-07T21:28:59.928Z,99582.63
2023-05-07T21:31:26.900Z,99587.69
2023-05-07T21:33:54.142Z,99590.78
2023-05-07T21:36:20.974Z,99588.19
2023-05-07T21:38:50.469Z,99573.13
2023-05-07T21:41:17.354Z,99583.34
2023-05-07T21:43:44.542Z,99575.38
2023-05-07T21:46:11.503Z,99579.91
2023-05-07T21:48:38.867Z,99572.75
2023-05-07T21:51:07.440Z,99583.97
2023-05-07T21:53:35.320Z,99578.28
2023-05-07T21:56:03.029Z,99585.56
2023-05-07T21:58:31.145Z,99576.97
2023-05-07T22:00:58.773Z,99583.94
2023-05-07T22:03:25.744Z,99581.00
2023-05-07T22:05:52.905Z,99583.56
2023-05-07T22:08:19.988Z,99577.38
2023-05-07T22:10:46.849Z,99564.69
2023-05-07T22:13:13.871Z,99580.13
2023-05-07T22:15:49.565Z,99572.66
2023-05-07T22:18:23.563Z,99572.13
2023-05-07T22:20:53.487Z,99571.13
2023-05-07T22:23:20.694Z,99565.44
2023-05-07T22:25:47.733Z,99572.06
2023-05-07T22:28:14.617Z,99573.03
2023-05-07T22:30:41.759Z,99569.78
2023-05-07T22:33:08.981Z,99566.19
2023-05-07T22:35:35.871Z,99567.25
2023-05-07T22:38:02.969Z,99540.41
2023-05-07T22:40:30.197Z,99550.03
2023-05-07T22:42:57.331Z,99547.78
2023-05-07T22:45:24.182Z,99523.41
2023-05-07T22:47:51.356Z,99533.63
2023-05-07T22:50:18.424Z,99560.13
2023-05-07T22:52:45.256Z,99558.50
2023-05-07T22:55:12.127Z,99549.69
2023-05-07T22:57:39.219Z,99549.34
2023-05-07T23:00:06.887Z,99555.69
2023-05-07T23:02:34.067Z,99543.97
2023-05-07T23:05:01.719Z,99556.31
2023-05-07T23:07:28.755Z,99555.81
2023-05-07T23:09:55.931Z,99530.16
2023-05-07T23:12:23.013Z,99539.41
2023-05-07T23:14:49.893Z,99541.69
2023-05-07T23:17:17.073Z,99538.41
2023-05-07T23:19:44.033Z,99532.03
2023-05-07T23:22:11.112Z,99520.47
2023-05-07T23:24:38.265Z,99537.75
2023-05-07T23:27:08.687Z,99537.44
2023-05-07T23:29:35.743Z,99524.41
2023-05-07T23:32:02.851Z,99531.53
2023-05-07T23:34:29.816Z,99518.97
2023-05-07T23:36:57.948Z,99509.03
2023-05-07T23:39:25.036Z,99517.34
2023-05-07T23:41:52.008Z,99510.66
2023-05-07T23:44:19.134Z,99507.91
2023-05-07T23:46:46.393Z,99523.16
2023-05-07T23:49:13.667Z,99508.88
2023-05-07T23:51:40.569Z,99486.72
2023-05-07T23:54:07.542Z,99508.81
2023-05-07T23:56:34.487Z,99512.00
2023-05-07T23:59:01.426Z,99511.31
